sensor_id;sensor_type;location;lat;lon;timestamp;P1;durP1;ratioP1;P2;durP2;ratioP2
63406;SDS011;49543;45.892;10.838;2022-11-15T08:43:43;6.35;;;5.53;;
63406;SDS011;49543;45.892;10.838;2022-11-15T09:22:10;6.45;;;5.65;;
63406;SDS011;49543;45.892;10.838;2022-11-15T09:24:36;7.93;;;6.18;;
63406;SDS011;49543;45.892;10.838;2022-11-15T09:27:01;6.20;;;5.57;;
63406;SDS011;49543;45.892;10.838;2022-11-15T09:29:27;7.30;;;6.60;;
63406;SDS011;49543;45.892;10.838;2022-11-15T09:31:53;7.10;;;5.90;;
63406;SDS011;49543;45.892;10.838;2022-11-15T09:34:18;6.65;;;5.72;;
63406;SDS011;49543;45.892;10.838;2022-11-15T09:36:44;7.93;;;5.90;;
63406;SDS011;49543;45.892;10.838;2022-11-15T09:39:09;7.50;;;6.03;;
63406;SDS011;49543;45.892;10.838;2022-11-15T09:42:18;6.35;;;5.25;;
63406;SDS011;49543;45.892;10.838;2022-11-15T09:44:44;6.95;;;5.22;;
63406;SDS011;49543;45.892;10.838;2022-11-15T09:50:12;8.07;;;6.25;;
63406;SDS011;49543;45.892;10.838;2022-11-15T09:52:43;8.32;;;6.50;;
63406;SDS011;49543;45.892;10.838;2022-11-15T09:55:10;7.60;;;6.72;;
63406;SDS011;49543;45.892;10.838;2022-11-15T09:57:57;7.90;;;6.68;;
63406;SDS011;49543;45.892;10.838;2022-11-15T10:00:36;10.18;;;6.47;;
63406;SDS011;49543;45.892;10.838;2022-11-15T10:03:12;7.65;;;6.25;;
63406;SDS011;49543;45.892;10.838;2022-11-15T10:05:54;7.30;;;6.43;;
63406;SDS011;49543;45.892;10.838;2022-11-15T10:11:06;9.00;;;6.32;;
63406;SDS011;49543;45.892;10.838;2022-11-15T10:13:38;6.85;;;5.93;;
63406;SDS011;49543;45.892;10.838;2022-11-15T10:24:39;6.50;;;5.43;;
63406;SDS011;49543;45.892;10.838;2022-11-15T10:27:11;5.93;;;4.88;;
63406;SDS011;49543;45.892;10.838;2022-11-15T10:29:43;7.78;;;5.22;;
63406;SDS011;49543;45.892;10.838;2022-11-15T10:32:11;6.22;;;5.63;;
63406;SDS011;49543;45.892;10.838;2022-11-15T10:34:37;5.60;;;5.05;;
63406;SDS011;49543;45.892;10.838;2022-11-15T10:37:03;5.00;;;4.30;;
63406;SDS011;49543;45.892;10.838;2022-11-15T10:39:28;5.18;;;4.65;;
63406;SDS011;49543;45.892;10.838;2022-11-15T10:41:54;5.00;;;4.50;;
63406;SDS011;49543;45.892;10.838;2022-11-15T10:44:24;5.38;;;4.82;;
63406;SDS011;49543;45.892;10.838;2022-11-15T10:49:21;5.63;;;5.03;;
63406;SDS011;49543;45.892;10.838;2022-11-15T10:51:54;5.15;;;4.65;;
63406;SDS011;49543;45.892;10.838;2022-11-15T10:56:53;6.05;;;4.90;;
63406;SDS011;49543;45.892;10.838;2022-11-15T10:59:30;4.45;;;4.05;;
63406;SDS011;49543;45.892;10.838;2022-11-15T11:01:58;4.97;;;4.47;;
63406;SDS011;49543;45.892;10.838;2022-11-15T11:04:25;6.45;;;5.20;;
63406;SDS011;49543;45.892;10.838;2022-11-15T11:06:57;7.15;;;5.97;;
63406;SDS011;49543;45.892;10.838;2022-11-15T11:09:31;7.70;;;6.43;;
63406;SDS011;49543;45.892;10.838;2022-11-15T11:12:02;6.03;;;5.43;;
63406;SDS011;49543;45.892;10.838;2022-11-15T11:14:30;11.80;;;8.73;;
63406;SDS011;49543;45.892;10.838;2022-11-15T11:17:02;16.33;;;11.88;;
63406;SDS011;49543;45.892;10.838;2022-11-15T11:19:57;8.18;;;6.20;;
63406;SDS011;49543;45.892;10.838;2022-11-15T11:39:46;6.00;;;5.40;;
63406;SDS011;49543;45.892;10.838;2022-11-15T11:50:29;6.82;;;5.43;;
63406;SDS011;49543;45.892;10.838;2022-11-15T11:52:57;6.13;;;5.38;;
63406;SDS011;49543;45.892;10.838;2022-11-15T11:58:42;7.10;;;6.43;;
63406;SDS011;49543;45.892;10.838;2022-11-15T12:14:30;8.98;;;6.72;;
63406;SDS011;49543;45.892;10.838;2022-11-15T12:17:01;8.82;;;7.18;;
63406;SDS011;49543;45.892;10.838;2022-11-15T12:19:28;13.93;;;9.52;;
63406;SDS011;49543;45.892;10.838;2022-11-15T12:22:10;9.95;;;7.63;;
63406;SDS011;49543;45.892;10.838;2022-11-15T12:24:47;7.05;;;6.20;;
63406;SDS011;49543;45.892;10.838;2022-11-15T12:27:21;7.70;;;6.07;;
63406;SDS011;49543;45.892;10.838;2022-11-15T12:29:56;6.75;;;5.85;;
63406;SDS011;49543;45.892;10.838;2022-11-15T12:32:33;7.38;;;6.18;;
63406;SDS011;49543;45.892;10.838;2022-11-15T12:35:00;7.00;;;6.30;;
63406;SDS011;49543;45.892;10.838;2022-11-15T12:42:36;6.78;;;5.93;;
63406;SDS011;49543;45.892;10.838;2022-11-15T17:53:45;6.35;;;5.70;;
63406;SDS011;49543;45.892;10.838;2022-11-15T17:56:13;7.25;;;5.78;;
63406;SDS011;49543;45.892;10.838;2022-11-15T17:58:40;7.70;;;5.50;;
63406;SDS011;49543;45.892;10.838;2022-11-15T18:03:52;6.05;;;4.88;;
63406;SDS011;49543;45.892;10.838;2022-11-15T18:06:18;6.47;;;5.43;;
63406;SDS011;49543;45.892;10.838;2022-11-15T18:08:46;5.90;;;5.25;;
63406;SDS011;49543;45.892;10.838;2022-11-15T18:11:13;6.32;;;5.55;;
63406;SDS011;49543;45.892;10.838;2022-11-15T18:13:42;9.13;;;6.22;;
63406;SDS011;49543;45.892;10.838;2022-11-15T18:16:11;6.70;;;5.47;;
63406;SDS011;49543;45.892;10.838;2022-11-15T18:18:38;6.40;;;5.80;;
63406;SDS011;49543;45.892;10.838;2022-11-15T18:21:04;6.80;;;6.10;;
63406;SDS011;49543;45.892;10.838;2022-11-15T18:23:31;6.60;;;5.90;;
63406;SDS011;49543;45.892;10.838;2022-11-15T18:25:58;6.45;;;5.30;;
63406;SDS011;49543;45.892;10.838;2022-11-15T18:28:29;7.90;;;6.13;;
63406;SDS011;49543;45.892;10.838;2022-11-15T18:30:56;6.55;;;5.85;;
63406;SDS011;49543;45.892;10.838;2022-11-15T18:33:22;6.60;;;6.00;;
63406;SDS011;49543;45.892;10.838;2022-11-15T18:35:48;8.43;;;6.22;;
63406;SDS011;49543;45.892;10.838;2022-11-15T18:38:13;6.43;;;5.82;;
63406;SDS011;49543;45.892;10.838;2022-11-15T18:40:39;6.80;;;6.10;;
63406;SDS011;49543;45.892;10.838;2022-11-15T18:43:04;6.05;;;5.53;;
63406;SDS011;49543;45.892;10.838;2022-11-15T18:45:32;6.88;;;6.18;;
63406;SDS011;49543;45.892;10.838;2022-11-15T18:47:59;7.22;;;6.10;;
63406;SDS011;49543;45.892;10.838;2022-11-15T18:50:24;7.82;;;6.53;;
63406;SDS011;49543;45.892;10.838;2022-11-15T18:52:49;9.60;;;7.65;;
63406;SDS011;49543;45.892;10.838;2022-11-15T18:55:15;21.90;;;15.07;;
63406;SDS011;49543;45.892;10.838;2022-11-15T18:57:40;18.73;;;11.00;;
63406;SDS011;49543;45.892;10.838;2022-11-15T19:00:06;17.85;;;11.95;;
63406;SDS011;49543;45.892;10.838;2022-11-15T19:02:33;12.55;;;9.38;;
63406;SDS011;49543;45.892;10.838;2022-11-15T19:04:58;12.32;;;9.07;;
63406;SDS011;49543;45.892;10.838;2022-11-15T19:07:24;17.67;;;10.18;;
63406;SDS011;49543;45.892;10.838;2022-11-15T19:09:49;9.02;;;7.82;;
63406;SDS011;49543;45.892;10.838;2022-11-15T19:12:14;9.05;;;7.07;;
63406;SDS011;49543;45.892;10.838;2022-11-15T19:14:40;10.95;;;8.10;;
63406;SDS011;49543;45.892;10.838;2022-11-15T19:17:05;9.63;;;8.63;;
63406;SDS011;49543;45.892;10.838;2022-11-15T19:19:31;9.88;;;8.57;;
63406;SDS011;49543;45.892;10.838;2022-11-15T19:21:57;10.15;;;9.05;;
63406;SDS011;49543;45.892;10.838;2022-11-15T19:24:23;9.68;;;8.75;;
63406;SDS011;49543;45.892;10.838;2022-11-15T19:26:50;10.80;;;9.07;;
63406;SDS011;49543;45.892;10.838;2022-11-15T19:29:15;13.50;;;10.15;;
63406;SDS011;49543;45.892;10.838;2022-11-15T19:31:42;12.30;;;11.00;;
63406;SDS011;49543;45.892;10.838;2022-11-15T19:34:07;11.57;;;10.38;;
63406;SDS011;49543;45.892;10.838;2022-11-15T19:36:37;11.00;;;9.48;;
63406;SDS011;49543;45.892;10.838;2022-11-15T19:39:06;9.60;;;8.52;;
63406;SDS011;49543;45.892;10.838;2022-11-15T19:41:37;9.50;;;7.47;;
63406;SDS011;49543;45.892;10.838;2022-11-15T19:44:06;11.00;;;9.48;;
63406;SDS011;49543;45.892;10.838;2022-11-15T19:46:32;8.88;;;7.63;;
63406;SDS011;49543;45.892;10.838;2022-11-15T19:48:58;8.40;;;7.50;;
63406;SDS011;49543;45.892;10.838;2022-11-15T19:51:24;8.77;;;7.40;;
63406;SDS011;49543;45.892;10.838;2022-11-15T19:53:52;7.60;;;6.80;;
63406;SDS011;49543;45.892;10.838;2022-11-15T19:56:19;8.88;;;7.88;;
63406;SDS011;49543;45.892;10.838;2022-11-15T19:58:45;10.32;;;8.25;;
63406;SDS011;49543;45.892;10.838;2022-11-15T20:01:17;10.30;;;9.18;;
63406;SDS011;49543;45.892;10.838;2022-11-15T20:03:47;9.98;;;8.57;;
63406;SDS011;49543;45.892;10.838;2022-11-15T20:06:16;8.57;;;6.57;;
63406;SDS011;49543;45.892;10.838;2022-11-15T20:08:43;6.78;;;6.07;;
63406;SDS011;49543;45.892;10.838;2022-11-15T20:11:09;6.97;;;6.22;;
63406;SDS011;49543;45.892;10.838;2022-11-15T20:13:36;7.38;;;6.65;;
63406;SDS011;49543;45.892;10.838;2022-11-15T20:16:01;9.20;;;8.18;;
63406;SDS011;49543;45.892;10.838;2022-11-15T20:18:27;11.23;;;10.02;;
63406;SDS011;49543;45.892;10.838;2022-11-15T20:20:53;11.07;;;9.95;;
63406;SDS011;49543;45.892;10.838;2022-11-15T20:23:26;9.25;;;7.80;;
63406;SDS011;49543;45.892;10.838;2022-11-15T20:25:52;9.63;;;8.02;;
63406;SDS011;49543;45.892;10.838;2022-11-15T20:28:19;11.57;;;8.02;;
63406;SDS011;49543;45.892;10.838;2022-11-15T20:30:53;8.50;;;7.60;;
63406;SDS011;49543;45.892;10.838;2022-11-15T20:33:20;27.50;;;18.67;;
63406;SDS011;49543;45.892;10.838;2022-11-15T20:35:46;26.50;;;14.48;;
63406;SDS011;49543;45.892;10.838;2022-11-15T20:38:12;13.80;;;9.65;;
63406;SDS011;49543;45.892;10.838;2022-11-15T20:40:38;9.43;;;7.35;;
63406;SDS011;49543;45.892;10.838;2022-11-15T20:43:04;10.45;;;7.55;;
63406;SDS011;49543;45.892;10.838;2022-11-15T20:45:30;10.27;;;7.95;;
63406;SDS011;49543;45.892;10.838;2022-11-15T20:47:56;11.20;;;8.57;;
63406;SDS011;49543;45.892;10.838;2022-11-15T20:50:23;13.00;;;9.65;;
63406;SDS011;49543;45.892;10.838;2022-11-15T20:52:49;12.57;;;9.65;;
63406;SDS011;49543;45.892;10.838;2022-11-15T20:55:15;13.45;;;10.90;;
63406;SDS011;49543;45.892;10.838;2022-11-15T20:57:40;13.32;;;10.93;;
63406;SDS011;49543;45.892;10.838;2022-11-15T21:00:06;12.30;;;11.00;;
63406;SDS011;49543;45.892;10.838;2022-11-15T21:02:32;12.82;;;10.82;;
63406;SDS011;49543;45.892;10.838;2022-11-15T21:04:57;12.52;;;9.63;;
63406;SDS011;49543;45.892;10.838;2022-11-15T21:07:23;11.05;;;9.63;;
63406;SDS011;49543;45.892;10.838;2022-11-15T21:09:49;13.55;;;10.00;;
63406;SDS011;49543;45.892;10.838;2022-11-15T21:12:33;13.00;;;10.30;;
63406;SDS011;49543;45.892;10.838;2022-11-15T21:14:58;11.88;;;9.60;;
63406;SDS011;49543;45.892;10.838;2022-11-15T21:17:24;12.75;;;10.10;;
63406;SDS011;49543;45.892;10.838;2022-11-15T21:19:49;11.30;;;9.77;;
63406;SDS011;49543;45.892;10.838;2022-11-15T21:22:15;13.73;;;10.70;;
63406;SDS011;49543;45.892;10.838;2022-11-15T21:24:41;11.40;;;9.98;;
63406;SDS011;49543;45.892;10.838;2022-11-15T21:27:06;12.13;;;9.80;;
63406;SDS011;49543;45.892;10.838;2022-11-15T21:29:32;13.82;;;9.82;;
63406;SDS011;49543;45.892;10.838;2022-11-15T21:32:05;10.88;;;9.27;;
63406;SDS011;49543;45.892;10.838;2022-11-15T21:34:32;10.35;;;9.10;;
63406;SDS011;49543;45.892;10.838;2022-11-15T21:36:57;12.15;;;9.73;;
63406;SDS011;49543;45.892;10.838;2022-11-15T21:39:23;11.60;;;9.13;;
63406;SDS011;49543;45.892;10.838;2022-11-15T21:41:49;10.00;;;8.43;;
63406;SDS011;49543;45.892;10.838;2022-11-15T21:44:14;15.15;;;10.80;;
63406;SDS011;49543;45.892;10.838;2022-11-15T21:46:40;11.80;;;10.60;;
63406;SDS011;49543;45.892;10.838;2022-11-15T21:49:06;11.73;;;10.25;;
63406;SDS011;49543;45.892;10.838;2022-11-15T21:51:32;14.18;;;10.82;;
63406;SDS011;49543;45.892;10.838;2022-11-15T21:53:58;15.10;;;10.05;;
63406;SDS011;49543;45.892;10.838;2022-11-15T21:56:24;11.70;;;9.00;;
63406;SDS011;49543;45.892;10.838;2022-11-15T21:58:51;13.68;;;10.80;;
63406;SDS011;49543;45.892;10.838;2022-11-15T22:01:17;15.13;;;11.27;;
63406;SDS011;49543;45.892;10.838;2022-11-15T22:04:01;12.77;;;9.50;;
63406;SDS011;49543;45.892;10.838;2022-11-15T22:06:27;10.80;;;9.05;;
63406;SDS011;49543;45.892;10.838;2022-11-15T22:08:52;12.50;;;9.60;;
63406;SDS011;49543;45.892;10.838;2022-11-15T22:11:18;15.05;;;10.52;;
63406;SDS011;49543;45.892;10.838;2022-11-15T22:13:43;11.63;;;9.93;;
63406;SDS011;49543;45.892;10.838;2022-11-15T22:16:09;10.63;;;9.18;;
63406;SDS011;49543;45.892;10.838;2022-11-15T22:18:35;13.52;;;9.73;;
63406;SDS011;49543;45.892;10.838;2022-11-15T22:21:04;11.10;;;9.27;;
63406;SDS011;49543;45.892;10.838;2022-11-15T22:23:34;11.18;;;9.77;;
63406;SDS011;49543;45.892;10.838;2022-11-15T22:26:01;11.18;;;9.82;;
63406;SDS011;49543;45.892;10.838;2022-11-15T22:28:27;11.48;;;9.27;;
63406;SDS011;49543;45.892;10.838;2022-11-15T22:30:54;13.15;;;9.18;;
63406;SDS011;49543;45.892;10.838;2022-11-15T22:33:21;12.95;;;8.60;;
63406;SDS011;49543;45.892;10.838;2022-11-15T22:35:48;12.30;;;8.82;;
63406;SDS011;49543;45.892;10.838;2022-11-15T22:38:13;12.02;;;9.05;;
